Time;durP1;ratioP1;P1;durP2;ratioP2;P2;SDS_P1;SDS_P2;PMS_P1;PMS_P2;Temp;Humidity;BMP_temperature;BMP_pressure;BME280_temperature;BME280_humidity;BME280_pressure;Samples;Min_cycle;Max_cycle;Signal;HPM_P1;HPM_P2
2023/05/28 00:01:36;;;;;;;1.33;1.23;;;;;;;18.46;62.41;96737.47;10492839;28;20549;-34
2023/05/28 00:06:36;;;;;;;0.93;0.90;;;;;;;18.40;62.35;96727.34;10481375;28;20096;-34
2023/05/28 00:11:37;;;;;;;1.27;1.10;;;;;;;18.37;62.06;96717.19;10479444;28;20024;-35
2023/05/28 00:16:37;;;;;;;1.30;1.20;;;;;;;18.34;61.82;96717.19;10475911;28;20028;-34
2023/05/28 00:21:38;;;;;;;1.00;0.90;;;;;;;18.34;61.70;96714.66;10491194;28;20064;-34
2023/05/28 00:26:38;;;;;;;1.50;1.40;;;;;;;18.33;61.54;96718.88;10479510;28;20083;-34
2023/05/28 00:31:39;;;;;;;1.00;0.90;;;;;;;18.31;61.39;96712.97;10486885;28;20291;-33
2023/05/28 00:36:39;;;;;;;1.17;1.07;;;;;;;18.32;61.42;96709.56;10490635;28;20048;-33
2023/05/28 00:41:40;;;;;;;1.30;0.95;;;;;;;18.32;61.07;96696.06;10479148;28;20286;-33
2023/05/28 00:46:44;;;;;;;1.25;1.10;;;;;;;18.47;61.79;96694.38;10485473;28;20043;-34
2023/05/28 00:51:45;;;;;;;1.25;1.15;;;;;;;18.62;62.43;96696.91;10472275;28;20044;-36
2023/05/28 00:56:46;;;;;;;1.20;1.10;;;;;;;18.61;61.96;96695.22;10483053;28;20074;-33
2023/05/28 01:01:47;;;;;;;1.30;1.10;;;;;;;18.48;62.43;96701.13;10474134;28;20040;-34
2023/05/28 01:06:48;;;;;;;1.17;1.08;;;;;;;18.41;62.51;96699.44;10464134;28;20041;-35
2023/05/28 01:11:52;;;;;;;1.27;1.17;;;;;;;18.37;62.25;96687.63;10482388;28;20024;-34
2023/05/28 01:16:53;;;;;;;1.10;0.95;;;;;;;18.37;61.70;96691.84;10483271;28;20028;-33
2023/05/28 01:22:05;;;;;;;1.50;1.30;;;;;;;18.35;61.55;96688.47;10455352;28;20028;-34
2023/05/28 01:27:06;;;;;;;1.40;1.25;;;;;;;18.33;61.35;96685.09;10463938;28;20167;-33
2023/05/28 01:32:06;;;;;;;1.13;1.02;;;;;;;18.27;61.24;96674.91;10475883;28;20501;-33
2023/05/28 01:37:09;;;;;;;1.10;1.00;;;;;;;18.31;61.20;96686.75;10481114;28;20032;-33
2023/05/28 01:42:11;;;;;;;1.20;1.10;;;;;;;18.32;61.00;96683.41;10449593;28;20034;-33
2023/05/28 01:47:13;;;;;;;1.30;1.20;;;;;;;18.43;62.33;96679.16;10455759;28;20021;-35
2023/05/28 01:52:14;;;;;;;2.10;1.42;;;;;;;18.60;62.41;96664.78;10456221;28;20518;-32
2023/05/28 01:57:15;;;;;;;1.00;0.88;;;;;;;18.65;61.49;96670.66;10471930;28;20025;-33
2023/05/28 02:02:15;;;;;;;1.10;1.00;;;;;;;18.51;62.50;96664.78;10458469;28;20032;-35
2023/05/28 02:07:15;;;;;;;1.13;1.03;;;;;;;18.42;62.64;96664.81;10456112;28;20040;-34
2023/05/28 02:12:16;;;;;;;1.17;1.08;;;;;;;18.38;62.44;96668.16;10464327;28;20032;-33
2023/05/28 02:17:17;;;;;;;1.35;1.17;;;;;;;18.36;61.95;96664.81;10469228;28;20155;-34
2023/05/28 02:22:17;;;;;;;1.02;0.93;;;;;;;18.35;61.76;96652.97;10476035;28;20032;-34
2023/05/28 02:27:19;;;;;;;1.50;1.20;;;;;;;18.30;61.43;96645.38;10479816;28;20090;-33
2023/05/28 02:32:21;;;;;;;1.20;1.10;;;;;;;18.33;61.25;96654.69;10487893;28;20033;-34
2023/05/28 02:37:26;;;;;;;1.40;1.30;;;;;;;18.33;61.16;96649.59;10461705;28;20033;-33
2023/05/28 02:42:26;;;;;;;1.10;1.00;;;;;;;18.32;61.20;96647.91;10487939;28;20036;-33
2023/05/28 02:47:28;;;;;;;1.42;1.33;;;;;;;18.34;62.90;96649.59;10467941;28;20066;-34
2023/05/28 02:52:28;;;;;;;1.20;1.10;;;;;;;18.55;62.36;96651.25;10475172;28;20040;-33
2023/05/28 02:57:31;;;;;;;1.58;1.17;;;;;;;18.63;61.75;96644.47;10455206;28;20029;-34
2023/05/28 03:02:31;;;;;;;1.05;1.00;;;;;;;18.53;62.35;96653.81;10477075;28;20070;-34
2023/05/28 03:07:32;;;;;;;0.82;0.82;;;;;;;18.44;62.43;96652.97;10467705;28;20032;-33
2023/05/28 03:12:36;;;;;;;0.77;0.77;;;;;;;18.38;62.14;96652.97;10494462;28;20096;-33
2023/05/28 03:17:36;;;;;;;1.13;1.02;;;;;;;18.35;62.42;96655.50;10465119;28;20043;-34
2023/05/28 03:22:37;;;;;;;1.20;1.10;;;;;;;18.34;61.66;96663.97;10486761;28;21033;-33
2023/05/28 03:27:38;;;;;;;1.35;1.00;;;;;;;18.33;61.54;96669.88;10467698;28;20037;-34
2023/05/28 03:32:38;;;;;;;1.70;1.30;;;;;;;18.32;61.27;96665.66;10461001;28;20155;-33
2023/05/28 03:37:39;;;;;;;1.27;1.10;;;;;;;18.30;61.05;96658.06;10484536;28;20035;-33
2023/05/28 03:42:40;;;;;;;0.77;0.77;;;;;;;18.29;61.17;96658.00;10477198;28;20032;-33
2023/05/28 03:47:41;;;;;;;1.13;1.02;;;;;;;18.32;61.20;96665.66;10467637;28;20024;-33
2023/05/28 03:52:41;;;;;;;1.30;1.20;;;;;;;18.49;62.23;96661.44;10465691;28;20024;-33
2023/05/28 03:57:42;;;;;;;1.70;1.40;;;;;;;18.63;62.68;96667.31;10474285;28;20078;-34
2023/05/28 04:02:42;;;;;;;1.17;1.05;;;;;;;18.57;62.03;96659.72;10469451;28;20090;-34
2023/05/28 04:07:43;;;;;;;0.88;0.88;;;;;;;18.43;62.53;96657.19;10473554;28;20374;-33
2023/05/28 04:12:43;;;;;;;1.20;1.10;;;;;;;18.38;62.20;96661.44;10466117;28;20036;-33
2023/05/28 04:17:44;;;;;;;1.20;1.10;;;;;;;18.36;62.29;96664.81;10465019;28;20290;-34
2023/05/28 04:22:44;;;;;;;1.17;1.00;;;;;;;18.34;62.05;96671.56;10473453;28;20073;-34
2023/05/28 04:27:45;;;;;;;0.90;0.90;;;;;;;18.34;61.84;96671.56;10488579;28;20115;-33
2023/05/28 04:32:45;;;;;;;1.38;1.20;;;;;;;18.32;61.44;96669.03;10454348;28;20235;-34
2023/05/28 04:37:46;;;;;;;1.42;1.17;;;;;;;18.32;61.22;96668.19;10457663;28;20028;-37
2023/05/28 04:42:53;;;;;;;1.20;1.10;;;;;;;18.31;61.18;96676.63;10483041;28;20121;-33
2023/05/28 04:47:54;;;;;;;1.10;1.00;;;;;;;18.31;61.19;96681.69;10457004;28;20551;-33
2023/05/28 04:52:55;;;;;;;1.20;1.10;;;;;;;18.38;62.40;96676.63;10472318;28;20081;-34
2023/05/28 04:57:55;;;;;;;1.50;1.37;;;;;;;18.58;62.58;96679.97;10474497;28;20025;-33
2023/05/28 05:02:56;;;;;;;1.05;1.00;;;;;;;18.60;61.64;96677.47;10478351;28;20287;-33
2023/05/28 05:07:58;;;;;;;1.30;1.20;;;;;;;18.47;62.45;96681.69;10467273;28;20029;-34
2023/05/28 05:12:59;;;;;;;1.10;1.00;;;;;;;18.38;62.45;96679.16;10467593;28;20166;-33
2023/05/28 05:18:00;;;;;;;1.58;1.38;;;;;;;18.35;62.02;96684.22;10452640;28;20028;-33
2023/05/28 05:23:01;;;;;;;1.13;1.02;;;;;;;18.34;61.73;96696.91;10460215;28;20028;-34
2023/05/28 05:28:02;;;;;;;1.45;1.35;;;;;;;18.31;61.59;96685.06;10472530;28;20032;-34
2023/05/28 05:33:05;;;;;;;1.00;0.90;;;;;;;18.31;61.30;96691.81;10468985;28;20408;-34
2023/05/28 05:38:16;;;;;;;1.30;1.20;;;;;;;18.31;61.13;96684.22;10470177;28;20044;-34
2023/05/28 05:43:44;;;;;;;1.23;1.02;;;;;;;18.30;60.96;96682.53;10458282;28;20042;-33
2023/05/28 05:48:45;;;;;;;1.20;1.02;;;;;;;18.29;60.88;96678.28;10454694;28;20037;-34
2023/05/28 05:53:46;;;;;;;1.00;1.00;;;;;;;18.38;61.91;96678.31;10465105;28;20393;-33
2023/05/28 05:58:47;;;;;;;1.15;1.05;;;;;;;18.56;62.00;96673.22;10478975;28;20032;-34
2023/05/28 06:03:50;;;;;;;1.15;0.98;;;;;;;18.61;61.01;96671.53;10463005;28;20025;-33
2023/05/28 06:09:17;;;;;;;0.90;0.90;;;;;;;18.48;62.06;96669.84;10439559;28;20063;-33
2023/05/28 06:14:21;;;;;;;0.82;0.82;;;;;;;18.39;62.21;96675.78;10464065;28;20048;-33
2023/05/28 06:19:22;;;;;;;1.20;1.13;;;;;;;18.36;62.03;96680.00;10472372;28;20086;-33
2023/05/28 06:24:22;;;;;;;1.38;1.15;;;;;;;18.34;61.66;96674.94;10467023;28;20060;-33
2023/05/28 06:29:23;;;;;;;1.20;1.10;;;;;;;18.32;61.50;96676.63;10469714;28;20052;-34
2023/05/28 06:34:23;;;;;;;1.00;0.90;;;;;;;18.32;61.38;96683.41;10488593;28;20029;-34
2023/05/28 06:39:25;;;;;;;1.63;1.30;;;;;;;18.30;61.23;96677.47;10476575;28;20086;-33
2023/05/28 06:44:26;;;;;;;0.65;0.65;;;;;;;18.31;61.12;96681.69;10477423;28;20262;-33
2023/05/28 06:49:30;;;;;;;1.27;1.10;;;;;;;18.30;61.00;96685.06;10469405;28;20512;-33
2023/05/28 06:54:31;;;;;;;1.52;1.23;;;;;;;18.36;63.86;96680.88;10476807;28;20122;-33
2023/05/28 06:59:32;;;;;;;1.10;1.02;;;;;;;18.55;61.74;96671.53;10469157;28;20037;-33
2023/05/28 07:04:51;;;;;;;0.80;0.77;;;;;;;18.64;60.86;96669.84;10486122;28;20036;-32
2023/05/28 07:09:57;;;;;;;1.53;0.90;;;;;;;18.52;61.88;96666.47;10451296;28;20462;-34
2023/05/28 07:14:58;;;;;;;1.10;0.90;;;;;;;18.42;61.89;96662.28;10464360;28;20024;-33
2023/05/28 07:19:58;;;;;;;1.10;1.00;;;;;;;18.37;61.69;96656.34;10486220;28;20488;-33
2023/05/28 07:25:13;;;;;;;1.20;1.10;;;;;;;18.35;61.72;96655.50;10474086;28;20039;-33
2023/05/28 07:30:14;;;;;;;1.30;1.00;;;;;;;18.34;61.62;96653.81;10475718;28;20071;-33
2023/05/28 07:35:15;;;;;;;1.08;0.95;;;;;;;18.33;61.24;96660.56;10466702;28;20492;-33
2023/05/28 07:40:16;;;;;;;1.27;1.10;;;;;;;18.33;61.13;96659.75;10475713;28;20090;-33
2023/05/28 07:45:17;;;;;;;1.17;1.08;;;;;;;18.32;61.12;96653.00;10461665;28;20033;-33
2023/05/28 07:50:18;;;;;;;1.10;1.00;;;;;;;18.31;60.84;96656.34;10455941;28;20447;-35
2023/05/28 07:55:30;;;;;;;1.05;0.98;;;;;;;18.33;62.45;96657.22;10458681;28;20309;-34
2023/05/28 08:00:36;;;;;;;0.80;0.80;;;;;;;18.53;62.35;96653.81;10474177;28;20027;-35
2023/05/28 08:05:39;;;;;;;;;;;;;;;18.64;61.53;96654.63;10474428;28;20090;-34
2023/05/28 08:10:39;;;;;;;0.90;0.80;;;;;;;18.54;61.91;96652.97;10466023;28;19971;-34
2023/05/28 08:15:40;;;;;;;1.02;0.93;;;;;;;18.44;62.04;96656.34;10465403;28;20863;-33
2023/05/28 08:20:43;;;;;;;0.85;0.85;;;;;;;18.36;62.02;96644.53;10472633;28;20021;-33
2023/05/28 08:25:55;;;;;;;1.23;0.93;;;;;;;18.37;61.99;96647.06;10470761;28;20170;-34
2023/05/28 08:31:02;;;;;;;1.13;1.02;;;;;;;18.36;61.76;96644.53;10448759;28;20021;-33
2023/05/28 08:36:16;;;;;;;1.00;0.93;;;;;;;18.35;61.53;96647.91;10466971;28;20032;-34
2023/05/28 08:41:19;;;;;;;0.95;0.95;;;;;;;18.35;61.77;96648.72;10465388;28;20098;-33
2023/05/28 08:46:22;;;;;;;0.82;0.82;;;;;;;18.33;61.42;96642.00;10457109;28;20028;-33
2023/05/28 08:51:53;;;;;;;1.23;1.10;;;;;;;18.33;61.25;96639.47;10483882;28;20159;-33
2023/05/28 08:56:56;;;;;;;1.05;0.93;;;;;;;18.35;63.01;96638.59;10464653;28;20027;-33
2023/05/28 09:01:57;;;;;;;1.17;1.08;;;;;;;18.55;62.93;96646.19;10461280;28;20035;-33
2023/05/28 09:06:57;;;;;;;0.98;0.98;;;;;;;18.65;62.16;96636.03;10459910;28;20031;-33
2023/05/28 09:12:12;;;;;;;0.95;0.85;;;;;;;18.56;61.69;96637.72;10455616;28;20120;-33
2023/05/28 09:17:16;;;;;;;0.85;0.82;;;;;;;18.47;62.21;96632.66;10466531;28;20048;-33
2023/05/28 09:22:18;;;;;;;1.00;0.90;;;;;;;18.43;62.34;96636.06;10471635;28;20085;-33
2023/05/28 09:27:44;;;;;;;1.17;1.00;;;;;;;18.39;62.17;96629.31;10464437;28;20037;-33
2023/05/28 09:32:44;;;;;;;0.80;0.80;;;;;;;18.37;61.91;96631.00;10489866;28;20036;-33
2023/05/28 09:37:45;;;;;;;1.13;1.00;;;;;;;18.36;61.89;96622.56;10489558;28;20037;-33
2023/05/28 09:42:45;;;;;;;0.87;0.80;;;;;;;18.36;61.77;96625.09;10481917;28;20771;-33
2023/05/28 09:47:46;;;;;;;1.20;1.08;;;;;;;18.35;61.48;96622.56;10496503;28;20419;-34
2023/05/28 09:52:47;;;;;;;0.70;0.70;;;;;;;18.35;61.63;96622.56;10485595;28;20036;-34
2023/05/28 09:58:05;;;;;;;0.80;0.80;;;;;;;18.36;63.13;96624.25;10481636;28;20040;-34
2023/05/28 10:03:12;;;;;;;1.05;0.80;;;;;;;18.55;62.67;96625.91;10470024;28;20498;-33
2023/05/28 10:08:15;;;;;;;1.17;0.90;;;;;;;18.67;61.78;96626.72;10487811;28;20024;-33
2023/05/28 10:13:16;;;;;;;0.98;0.98;;;;;;;18.58;61.96;96623.38;10488558;28;20447;-33
2023/05/28 10:18:19;;;;;;;0.77;0.77;;;;;;;18.49;62.33;96620.88;10488940;28;20039;-33
2023/05/28 10:23:21;;;;;;;0.65;0.65;;;;;;;18.42;62.42;96614.09;10475057;28;20068;-34
2023/05/28 10:28:22;;;;;;;1.27;1.17;;;;;;;18.40;62.37;96608.22;10485821;28;20574;-33
2023/05/28 10:33:22;;;;;;;0.90;0.90;;;;;;;18.37;62.29;96603.13;10491573;28;20189;-34
2023/05/28 10:38:23;;;;;;;1.30;1.07;;;;;;;18.36;62.27;96604.81;10495343;28;20757;-33
2023/05/28 10:43:45;;;;;;;1.13;0.82;;;;;;;18.38;62.13;96592.13;10478679;28;20025;-33
2023/05/28 10:49:16;;;;;;;0.95;0.95;;;;;;;18.37;62.30;96595.50;10487455;28;20501;-33
2023/05/28 10:54:23;;;;;;;1.13;1.10;;;;;;;18.37;62.04;96601.44;10484876;28;20041;-33
2023/05/28 10:59:37;;;;;;;0.95;0.90;;;;;;;18.38;62.93;96599.75;10494862;28;20029;-33
2023/05/28 11:04:39;;;;;;;0.90;0.80;;;;;;;18.56;62.94;96589.56;10487601;28;20036;-33
2023/05/28 11:09:40;;;;;;;1.10;1.00;;;;;;;18.66;62.46;96584.47;10477459;28;20068;-34
2023/05/28 11:14:40;;;;;;;0.85;0.73;;;;;;;18.60;61.93;96584.47;10477615;28;20039;-34
2023/05/28 11:19:46;;;;;;;0.70;0.70;;;;;;;18.50;62.58;96581.97;10494595;28;20496;-33
2023/05/28 11:25:04;;;;;;;0.60;0.60;;;;;;;18.46;62.94;96575.22;10487048;28;20389;-33
2023/05/28 11:30:13;;;;;;;1.05;1.02;;;;;;;18.42;62.68;96583.69;10485512;28;20053;-34
2023/05/28 11:35:15;;;;;;;0.82;0.80;;;;;;;18.40;62.44;96576.09;10490486;28;20044;-34
2023/05/28 11:40:16;;;;;;;1.48;1.00;;;;;;;18.39;62.04;96578.59;10493884;28;20031;-33
2023/05/28 11:45:18;;;;;;;0.90;0.90;;;;;;;18.35;62.00;96567.63;10492894;28;20107;-33
2023/05/28 11:50:19;;;;;;;1.17;0.77;;;;;;;18.38;61.93;96571.84;10490247;28;20108;-33
2023/05/28 11:55:19;;;;;;;1.13;1.03;;;;;;;18.38;61.83;96556.66;10479340;28;20572;-33
2023/05/28 12:00:20;;;;;;;0.70;0.70;;;;;;;18.37;62.45;96565.97;10469037;28;20302;-33
2023/05/28 12:05:21;;;;;;;0.85;0.82;;;;;;;18.54;62.73;96558.31;10481369;28;20040;-34
2023/05/28 12:10:26;;;;;;;1.10;0.83;;;;;;;18.68;62.50;96551.50;10483494;28;20492;-33
2023/05/28 12:15:29;;;;;;;0.70;0.70;;;;;;;18.61;61.55;96544.75;10490923;28;20715;-34
2023/05/28 12:20:40;;;;;;;0.63;0.63;;;;;;;18.51;62.74;96553.25;10491276;28;20074;-33
2023/05/28 12:25:43;;;;;;;1.00;0.90;;;;;;;18.45;62.47;96554.13;10483746;28;20496;-33
2023/05/28 12:30:45;;;;;;;0.80;0.80;;;;;;;18.43;62.59;96550.72;10483210;28;20048;-33
2023/05/28 12:35:46;;;;;;;1.13;1.00;;;;;;;18.42;62.42;96545.66;10477614;28;20028;-34
2023/05/28 12:40:46;;;;;;;1.08;0.98;;;;;;;18.40;62.45;96533.00;10467313;28;20032;-33
2023/05/28 12:45:47;;;;;;;0.93;0.80;;;;;;;18.40;62.45;96532.16;10490837;28;20070;-33
2023/05/28 12:50:47;;;;;;;0.90;0.90;;;;;;;18.40;62.53;96524.56;10482110;28;20859;-33
2023/05/28 12:55:48;;;;;;;1.03;1.00;;;;;;;18.38;62.13;96523.69;10474747;28;20279;-33
2023/05/28 13:00:48;;;;;;;1.20;1.10;;;;;;;18.38;62.00;96511.03;10473536;28;20159;-34
2023/05/28 13:05:49;;;;;;;1.27;0.90;;;;;;;18.51;63.23;96513.50;10474027;28;20024;-33
2023/05/28 13:10:49;;;;;;;1.30;1.20;;;;;;;18.69;62.60;96508.41;10490102;28;20336;-33
2023/05/28 13:15:50;;;;;;;0.97;0.80;;;;;;;18.64;61.99;96499.97;10458748;28;20500;-33
2023/05/28 13:20:50;;;;;;;0.70;0.70;;;;;;;18.54;62.46;96497.47;10487852;28;20028;-33
2023/05/28 13:25:51;;;;;;;0.70;0.70;;;;;;;18.47;62.97;96491.56;10481651;28;20119;-33
2023/05/28 13:30:51;;;;;;;0.77;0.77;;;;;;;18.45;62.86;96492.41;10482217;28;20287;-34
2023/05/28 13:35:51;;;;;;;0.70;0.70;;;;;;;18.43;62.63;96496.66;10483578;28;20037;-33
2023/05/28 13:40:52;;;;;;;1.38;0.90;;;;;;;18.40;62.59;96478.94;10466210;28;20279;-34
2023/05/28 13:45:52;;;;;;;0.90;0.90;;;;;;;18.41;62.50;96481.44;10481490;28;20475;-34
2023/05/28 13:50:53;;;;;;;1.20;1.10;;;;;;;18.41;62.75;96475.56;10467081;28;20035;-33
2023/05/28 13:55:56;;;;;;;0.80;0.80;;;;;;;18.40;62.74;96473.88;10481185;28;20063;-33
2023/05/28 14:00:56;;;;;;;1.30;1.20;;;;;;;18.41;62.45;96467.94;10470644;28;20039;-34
2023/05/28 14:05:56;;;;;;;1.10;1.00;;;;;;;18.52;62.94;96458.59;10466894;28;20453;-34
2023/05/28 14:10:57;;;;;;;1.00;0.90;;;;;;;18.68;62.80;96460.22;10480790;28;20040;-33
2023/05/28 14:15:58;;;;;;;0.80;0.70;;;;;;;18.69;61.69;96452.63;10483481;28;20040;-34
2023/05/28 14:20:59;;;;;;;1.08;0.70;;;;;;;18.57;62.39;96446.75;10487635;28;20024;-33
2023/05/28 14:25:59;;;;;;;0.70;0.70;;;;;;;18.51;63.13;96444.25;10488395;28;20508;-34
2023/05/28 14:31:00;;;;;;;1.23;0.70;;;;;;;18.48;63.14;96431.56;10479624;28;20044;-33
2023/05/28 14:36:00;;;;;;;1.13;1.03;;;;;;;18.45;63.15;96432.44;10493952;28;20303;-34
2023/05/28 14:41:00;;;;;;;1.20;1.00;;;;;;;18.43;62.97;96429.03;10464540;28;20086;-33
2023/05/28 14:46:02;;;;;;;0.83;0.83;;;;;;;18.43;62.92;96425.69;10483072;28;20037;-33
2023/05/28 14:51:02;;;;;;;1.15;1.05;;;;;;;18.41;62.72;96424.84;10488950;28;20409;-33
2023/05/28 14:56:03;;;;;;;0.88;0.88;;;;;;;18.41;62.39;96419.78;10479537;28;20040;-33
2023/05/28 15:01:03;;;;;;;0.80;0.80;;;;;;;18.37;62.21;96402.91;10486727;28;20102;-33
2023/05/28 15:06:04;;;;;;;0.80;0.70;;;;;;;18.50;63.46;96404.53;10493024;28;20044;-32
2023/05/28 15:11:09;;;;;;;0.80;0.77;;;;;;;18.66;62.97;96401.06;10486302;28;20302;-34
2023/05/28 15:16:10;;;;;;;0.85;0.80;;;;;;;18.72;61.59;96390.88;10477963;28;20402;-33
2023/05/28 15:21:10;;;;;;;0.88;0.88;;;;;;;18.61;62.61;96397.72;10485749;28;20021;-34
2023/05/28 15:26:11;;;;;;;0.65;0.60;;;;;;;18.52;63.03;96383.41;10484977;28;20562;-33
2023/05/28 15:31:11;;;;;;;0.75;0.75;;;;;;;18.48;63.08;96376.66;10477372;28;20052;-33
2023/05/28 15:36:12;;;;;;;0.77;0.65;;;;;;;18.46;63.01;96387.63;10482439;28;20655;-35
2023/05/28 15:41:14;;;;;;;0.80;0.80;;;;;;;18.44;62.72;96386.81;10486160;28;20040;-34
2023/05/28 15:46:15;;;;;;;1.02;1.00;;;;;;;18.42;62.15;96383.44;10470053;28;20104;-33
2023/05/28 15:51:16;;;;;;;0.82;0.82;;;;;;;18.41;62.07;96381.78;10476035;28;20485;-33
2023/05/28 15:56:16;;;;;;;0.90;0.90;;;;;;;18.41;62.17;96381.78;10484996;28;20060;-33
2023/05/28 16:01:19;;;;;;;0.75;0.75;;;;;;;18.40;62.22;96383.44;10487870;28;20034;-33
2023/05/28 16:06:20;;;;;;;0.70;0.70;;;;;;;18.48;64.56;96383.41;10483372;28;20386;-33
2023/05/28 16:11:24;;;;;;;0.97;0.90;;;;;;;18.66;63.29;96378.25;10467367;28;20033;-34
2023/05/28 16:16:25;;;;;;;0.80;0.80;;;;;;;18.74;61.61;96384.13;10491614;28;20800;-34
2023/05/28 16:21:25;;;;;;;0.77;0.77;;;;;;;18.62;62.56;96391.78;10490846;28;20565;-33
2023/05/28 16:26:28;;;;;;;0.90;0.90;;;;;;;18.53;63.13;96389.28;10491914;28;20044;-34
2023/05/28 16:31:28;;;;;;;0.80;0.80;;;;;;;18.50;62.85;96389.31;10483066;28;20435;-33
2023/05/28 16:36:29;;;;;;;0.93;0.73;;;;;;;18.46;62.98;96391.03;10474074;28;20037;-33
2023/05/28 16:41:30;;;;;;;1.00;0.90;;;;;;;18.45;62.77;96383.44;10483056;28;20085;-34
2023/05/28 16:46:31;;;;;;;1.13;0.90;;;;;;;18.44;62.39;96386.81;10490573;28;20043;-33
2023/05/28 16:51:32;;;;;;;1.02;0.90;;;;;;;18.42;62.30;96396.13;10476926;28;20119;-34
2023/05/28 16:56:32;;;;;;;0.75;0.75;;;;;;;18.38;62.10;96390.22;10466566;28;20041;-33
2023/05/28 17:01:33;;;;;;;0.70;0.70;;;;;;;18.39;61.94;96394.44;10471519;28;20488;-32
2023/05/28 17:06:33;;;;;;;0.63;0.63;;;;;;;18.45;64.44;96396.09;10474938;28;20032;-33
2023/05/28 17:11:33;;;;;;;0.70;0.70;;;;;;;18.64;62.86;96402.75;10477624;28;20048;-32
2023/05/28 17:16:34;;;;;;;1.03;0.87;;;;;;;18.75;61.42;96411.16;10487612;28;20036;-34
2023/05/28 17:21:35;;;;;;;0.83;0.70;;;;;;;18.64;62.38;96407.81;10456843;28;20523;-34
2023/05/28 17:26:36;;;;;;;0.82;0.73;;;;;;;18.55;62.58;96418.00;10478579;28;20051;-33
2023/05/28 17:31:36;;;;;;;0.80;0.80;;;;;;;18.48;62.65;96421.41;10471261;28;20040;-33
2023/05/28 17:36:37;;;;;;;0.57;0.57;;;;;;;18.46;62.37;96423.13;10465767;28;20298;-33
2023/05/28 17:41:37;;;;;;;0.87;0.87;;;;;;;18.45;62.25;96431.59;10486271;28;20045;-32
2023/05/28 17:46:40;;;;;;;1.07;0.90;;;;;;;18.45;62.52;96431.59;10466073;28;20064;-33
2023/05/28 17:51:41;;;;;;;0.70;0.70;;;;;;;18.39;62.29;96429.94;10483201;28;20124;-33
2023/05/28 17:56:41;;;;;;;0.60;0.60;;;;;;;18.42;62.13;96446.81;10490094;28;20032;-33
2023/05/28 18:01:42;;;;;;;0.80;0.80;;;;;;;18.40;61.88;96454.41;10489633;28;20500;-34
2023/05/28 18:06:42;;;;;;;0.60;0.60;;;;;;;18.41;62.27;96450.22;10491275;28;20045;-34
2023/05/28 18:11:42;;;;;;;0.80;0.80;;;;;;;18.60;62.90;96460.22;10495279;28;20044;-33
2023/05/28 18:16:43;;;;;;;0.70;0.70;;;;;;;18.76;62.50;96463.56;10473480;28;20024;-35
2023/05/28 18:21:43;;;;;;;0.70;0.70;;;;;;;18.65;61.98;96466.13;10490237;28;20044;-33
2023/05/28 18:26:43;;;;;;;0.73;0.73;;;;;;;18.55;62.48;96464.50;10494171;28;20287;-33
2023/05/28 18:31:46;;;;;;;0.77;0.77;;;;;;;18.46;62.56;96468.75;10495972;28;20273;-33
2023/05/28 18:36:46;;;;;;;1.10;1.00;;;;;;;18.46;62.50;96468.75;10495466;28;20488;-33
2023/05/28 18:41:47;;;;;;;0.90;0.83;;;;;;;18.44;62.13;96475.53;10496604;28;20032;-33
2023/05/28 18:46:48;;;;;;;0.73;0.60;;;;;;;18.42;62.02;96477.22;10489894;28;20407;-33
2023/05/28 18:51:48;;;;;;;0.82;0.80;;;;;;;18.39;61.62;96477.22;10486662;28;20033;-35
2023/05/28 18:56:49;;;;;;;0.67;0.67;;;;;;;18.40;61.49;96489.06;10489129;28;20032;-34
2023/05/28 19:01:49;;;;;;;0.75;0.75;;;;;;;18.40;61.49;96491.63;10470360;28;20806;-32
2023/05/28 19:06:50;;;;;;;1.33;0.80;;;;;;;18.38;61.47;96491.59;10484343;28;20047;-33
2023/05/28 19:11:50;;;;;;;0.63;0.63;;;;;;;18.55;62.16;96491.53;10463693;28;20497;-34
2023/05/28 19:16:51;;;;;;;0.60;0.60;;;;;;;18.67;61.87;96489.78;10467783;28;20286;-33
2023/05/28 19:21:51;;;;;;;0.60;0.60;;;;;;;18.68;61.88;96503.31;10493868;28;20801;-32
2023/05/28 19:26:53;;;;;;;0.73;0.70;;;;;;;18.56;62.14;96505.88;10480107;28;20283;-33
2023/05/28 19:31:53;;;;;;;0.90;0.70;;;;;;;18.50;62.14;96511.00;10485449;28;20055;-33
2023/05/28 19:36:54;;;;;;;0.70;0.70;;;;;;;18.46;61.91;96514.38;10483291;28;20028;-33
2023/05/28 19:41:54;;;;;;;0.50;0.50;;;;;;;18.43;61.87;96512.69;10470808;28;20029;-32
2023/05/28 19:46:55;;;;;;;0.80;0.70;;;;;;;18.42;61.56;96515.25;10475937;28;20294;-34
2023/05/28 19:51:55;;;;;;;0.50;0.50;;;;;;;18.41;61.48;96528.78;10492395;28;20024;-33
2023/05/28 19:56:55;;;;;;;0.80;0.80;;;;;;;18.39;61.21;96528.78;10476680;28;20028;-33
2023/05/28 20:01:56;;;;;;;0.60;0.60;;;;;;;18.39;61.28;96532.97;10492563;28;20030;-33
2023/05/28 20:06:56;;;;;;;0.75;0.75;;;;;;;18.39;61.33;96532.97;10484168;28;20278;-33
2023/05/28 20:11:56;;;;;;;0.70;0.70;;;;;;;18.53;62.12;96546.47;10474738;28;20051;-33
2023/05/28 20:16:57;;;;;;;0.60;0.60;;;;;;;18.70;62.01;96559.94;10476501;28;20115;-33
2023/05/28 20:21:57;;;;;;;0.60;0.60;;;;;;;18.69;61.11;96551.50;10491223;28;20032;-34
2023/05/28 20:26:57;;;;;;;0.57;0.53;;;;;;;18.58;62.02;96563.34;10466179;28;20115;-32
2023/05/28 20:31:58;;;;;;;0.70;0.60;;;;;;;18.47;62.19;96562.56;10483165;28;20330;-33
2023/05/28 20:37:00;;;;;;;0.80;0.80;;;;;;;18.47;62.09;96581.97;10490898;28;20059;-33
2023/05/28 20:42:00;;;;;;;1.00;0.90;;;;;;;18.44;61.82;96582.00;10467076;28;20281;-34
2023/05/28 20:47:02;;;;;;;0.60;0.60;;;;;;;18.43;61.75;96586.19;10484952;28;20518;-33
2023/05/28 20:52:03;;;;;;;0.82;0.80;;;;;;;18.41;61.53;96592.97;10474237;28;20112;-34
2023/05/28 20:57:05;;;;;;;1.00;0.88;;;;;;;18.39;61.35;96589.59;10483762;28;20630;-33
2023/05/28 21:02:06;;;;;;;0.82;0.75;;;;;;;18.40;61.38;96600.59;10482365;28;20027;-33
2023/05/28 21:07:07;;;;;;;0.70;0.60;;;;;;;18.39;61.31;96598.88;10481972;28;20033;-33
2023/05/28 21:12:07;;;;;;;0.80;0.80;;;;;;;18.48;62.39;96602.25;10490611;28;20039;-33
2023/05/28 21:17:07;;;;;;;0.60;0.60;;;;;;;18.66;62.05;96598.84;10482182;28;20086;-33
2023/05/28 21:22:08;;;;;;;1.10;1.00;;;;;;;18.73;61.00;96595.41;10482552;28;20032;-32
2023/05/28 21:27:08;;;;;;;1.33;0.70;;;;;;;18.60;61.91;96599.69;10495900;28;20035;-32
2023/05/28 21:32:08;;;;;;;0.70;0.70;;;;;;;18.52;62.11;96605.63;10481959;28;20107;-32
2023/05/28 21:37:09;;;;;;;0.70;0.70;;;;;;;18.48;61.89;96603.94;10489559;28;20058;-33
2023/05/28 21:42:09;;;;;;;0.63;0.63;;;;;;;18.45;61.85;96601.41;10498956;28;20108;-33
2023/05/28 21:47:09;;;;;;;0.43;0.40;;;;;;;18.42;61.51;96593.84;10497957;28;20039;-34
2023/05/28 21:52:11;;;;;;;0.43;0.43;;;;;;;18.42;61.59;96598.91;10482833;28;20313;-32
2023/05/28 21:57:12;;;;;;;0.90;0.68;;;;;;;18.40;61.46;96601.44;10481800;28;20028;-33
2023/05/28 22:02:12;;;;;;;0.60;0.53;;;;;;;18.36;61.40;96598.91;10497067;28;20040;-32
2023/05/28 22:07:12;;;;;;;0.70;0.70;;;;;;;18.40;61.22;96605.66;10488582;28;20028;-34
2023/05/28 22:12:13;;;;;;;0.70;0.70;;;;;;;18.43;62.88;96600.59;10488955;28;20044;-33
2023/05/28 22:17:14;;;;;;;0.77;0.77;;;;;;;18.63;62.76;96598.84;10488479;28;20104;-33
2023/05/28 22:22:15;;;;;;;0.77;0.70;;;;;;;18.73;60.90;96605.56;10481325;28;20028;-33
2023/05/28 22:27:15;;;;;;;0.88;0.80;;;;;;;18.57;61.71;96593.81;10480157;28;20048;-33
2023/05/28 22:32:18;;;;;;;0.80;0.70;;;;;;;18.51;61.89;96591.28;10496306;28;20092;-33
2023/05/28 22:37:19;;;;;;;0.85;0.60;;;;;;;18.46;61.78;96601.44;10478047;28;20029;-33
2023/05/28 22:42:22;;;;;;;0.98;0.70;;;;;;;18.42;61.62;96588.75;10479862;28;20024;-33
2023/05/28 22:47:26;;;;;;;0.57;0.57;;;;;;;18.41;61.13;96592.97;10487438;28;20115;-33
2023/05/28 22:52:26;;;;;;;0.65;0.57;;;;;;;18.40;60.90;96585.41;10493274;28;20063;-33
2023/05/28 22:57:29;;;;;;;0.40;0.40;;;;;;;18.39;61.05;96589.59;10473199;28;20036;-32
2023/05/28 23:02:31;;;;;;;0.70;0.70;;;;;;;18.38;60.92;96587.91;10483739;28;20040;-34
2023/05/28 23:07:32;;;;;;;0.65;0.60;;;;;;;18.38;61.35;96587.06;10478005;28;20037;-33
2023/05/28 23:12:32;;;;;;;0.55;0.55;;;;;;;18.39;61.98;96584.53;10494688;28;20035;-33
2023/05/28 23:17:35;;;;;;;0.77;0.70;;;;;;;18.60;61.74;96581.09;10494368;28;20036;-33
2023/05/28 23:22:36;;;;;;;0.60;0.60;;;;;;;18.72;61.75;96583.59;10465826;28;20029;-34